createdAt,value
2023-07-21T00:02:03.271Z,52.50
2023-07-21T00:04:50.044Z,53.19
2023-07-21T00:07:38.309Z,52.23
2023-07-21T00:10:25.644Z,51.95
2023-07-21T00:13:12.814Z,51.63
2023-07-21T00:15:59.527Z,53.71
2023-07-21T00:18:47.919Z,54.27
2023-07-21T00:21:35.840Z,53.89
2023-07-21T00:24:23.050Z,53.49
2023-07-21T00:27:10.211Z,52.75
2023-07-21T00:29:57.522Z,53.43
2023-07-21T00:32:44.680Z,52.83
2023-07-21T00:35:34.420Z,53.12
2023-07-21T00:38:22.653Z,52.38
2023-07-21T00:41:09.473Z,52.00
2023-07-21T00:43:56.264Z,51.73
2023-07-21T00:46:43.208Z,52.78
2023-07-21T00:49:33.258Z,53.58
2023-07-21T00:52:20.649Z,54.12
2023-07-21T00:55:08.914Z,53.96
2023-07-21T00:57:56.009Z,53.00
2023-07-21T01:00:43.160Z,52.36
2023-07-21T01:03:31.959Z,52.78
2023-07-21T01:06:18.986Z,53.83
2023-07-21T01:09:08.609Z,53.66
2023-07-21T01:11:56.589Z,52.35
2023-07-21T01:14:44.345Z,52.23
2023-07-21T01:17:31.696Z,51.66
2023-07-21T01:20:24.084Z,51.42
2023-07-21T01:23:50.528Z,51.93
2023-07-21T01:26:40.449Z,51.94
2023-07-21T01:29:29.816Z,52.30
2023-07-21T01:32:22.308Z,51.67
2023-07-21T01:35:12.770Z,53.94
2023-07-21T01:38:00.916Z,52.84
2023-07-21T01:40:48.473Z,52.72
2023-07-21T01:43:36.318Z,52.04
2023-07-21T01:46:23.757Z,51.55
2023-07-21T01:49:11.019Z,51.70
2023-07-21T01:51:59.056Z,52.96
2023-07-21T01:54:51.205Z,51.82
2023-07-21T01:57:41.770Z,52.21
2023-07-21T02:00:48.090Z,51.92
2023-07-21T02:03:39.277Z,51.24
2023-07-21T02:06:26.370Z,50.94
2023-07-21T02:09:13.562Z,51.66
2023-07-21T02:12:00.534Z,51.40
2023-07-21T02:14:47.322Z,54.73
2023-07-21T02:17:37.465Z,55.91
2023-07-21T02:20:24.325Z,60.87
2023-07-21T02:23:11.506Z,56.92
2023-07-21T02:25:59.668Z,54.54
2023-07-21T02:28:46.446Z,53.34
2023-07-21T02:31:33.306Z,53.36
2023-07-21T02:34:20.794Z,52.02
2023-07-21T02:37:08.566Z,52.22
2023-07-21T02:39:55.450Z,56.11
2023-07-21T02:42:42.478Z,56.94
2023-07-21T02:45:29.781Z,58.66
2023-07-21T02:48:17.969Z,57.48
2023-07-21T02:51:04.817Z,56.40
2023-07-21T02:53:53.420Z,56.97
2023-07-21T02:56:40.702Z,57.64
2023-07-21T02:59:28.860Z,58.32
2023-07-21T03:02:16.204Z,54.98
2023-07-21T03:05:05.390Z,54.05
2023-07-21T03:07:52.271Z,55.64
2023-07-21T03:10:39.140Z,54.24
2023-07-21T03:13:27.306Z,54.57
2023-07-21T03:16:14.689Z,54.25
2023-07-21T03:19:01.767Z,54.88
2023-07-21T03:21:50.514Z,54.16
2023-07-21T03:24:41.341Z,55.92
2023-07-21T03:27:28.364Z,56.14
2023-07-21T03:30:16.271Z,56.59
2023-07-21T03:33:03.341Z,61.15
2023-07-21T03:35:57.611Z,60.78
2023-07-21T03:38:45.015Z,60.61
2023-07-21T03:41:32.057Z,58.26
2023-07-21T03:44:19.377Z,58.34
2023-07-21T03:47:06.424Z,58.96
2023-07-21T03:49:53.566Z,58.86
2023-07-21T03:52:42.339Z,60.02
2023-07-21T03:55:29.575Z,61.34
2023-07-21T03:58:16.690Z,59.93
2023-07-21T04:01:04.088Z,59.37
2023-07-21T04:03:52.830Z,60.78
2023-07-21T04:06:40.460Z,64.43
2023-07-21T04:09:27.295Z,60.01
2023-07-21T04:12:14.637Z,59.29
2023-07-21T04:15:01.423Z,59.02
2023-07-21T04:17:49.210Z,59.48
2023-07-21T04:20:36.698Z,60.82
2023-07-21T04:23:23.728Z,61.11
2023-07-21T04:26:13.166Z,60.49
2023-07-21T04:29:00.175Z,59.54
2023-07-21T04:31:47.665Z,57.58
2023-07-21T04:34:34.539Z,61.47
2023-07-21T04:37:22.013Z,62.45
2023-07-21T04:40:09.183Z,61.19
2023-07-21T04:42:56.412Z,61.17
2023-07-21T04:45:44.260Z,61.21
2023-07-21T04:48:31.120Z,62.09
2023-07-21T04:51:17.912Z,61.40
2023-07-21T04:54:04.709Z,62.65
2023-07-21T04:56:53.420Z,60.26
2023-07-21T04:59:41.270Z,60.23
2023-07-21T05:02:30.434Z,60.60
2023-07-21T05:05:17.944Z,60.27
2023-07-21T05:08:05.588Z,61.64
2023-07-21T05:10:54.542Z,60.95
2023-07-21T05:13:41.819Z,59.41
2023-07-21T05:16:29.641Z,58.23
2023-07-21T05:19:17.058Z,60.85
2023-07-21T05:22:05.036Z,61.70
2023-07-21T05:24:52.851Z,60.84
2023-07-21T05:27:40.244Z,60.13
2023-07-21T05:30:26.969Z,59.71
2023-07-21T05:33:14.284Z,62.27
2023-07-21T05:36:07.093Z,63.77
2023-07-21T05:38:54.652Z,61.43
2023-07-21T05:41:41.408Z,60.01
2023-07-21T05:44:28.228Z,60.69
2023-07-21T05:47:14.987Z,63.75
2023-07-21T05:50:02.606Z,62.72
2023-07-21T05:52:52.738Z,60.11
2023-07-21T05:55:43.242Z,62.55
2023-07-21T05:58:30.363Z,65.25
2023-07-21T06:01:17.786Z,65.84
2023-07-21T06:04:07.131Z,65.41
2023-07-21T06:06:58.072Z,64.97
2023-07-21T06:09:45.488Z,64.33
2023-07-21T06:12:32.276Z,64.21
2023-07-21T06:15:19.313Z,66.05
2023-07-21T06:18:06.771Z,66.36
2023-07-21T06:20:53.938Z,67.35
2023-07-21T06:23:40.714Z,66.40
2023-07-21T06:26:28.007Z,66.49
2023-07-21T06:29:15.565Z,67.74
2023-07-21T06:32:02.605Z,66.21
2023-07-21T06:34:49.994Z,64.85
2023-07-21T06:37:39.254Z,64.07
2023-07-21T06:40:26.303Z,64.19
2023-07-21T06:43:15.130Z,63.37
2023-07-21T06:46:04.253Z,62.05
2023-07-21T06:48:51.248Z,62.35
2023-07-21T06:51:38.530Z,62.45
2023-07-21T06:54:25.705Z,61.52
2023-07-21T06:57:12.716Z,60.81
2023-07-21T07:00:00.089Z,59.91
2023-07-21T07:02:50.488Z,59.65
2023-07-21T07:05:37.922Z,59.02
2023-07-21T07:08:24.985Z,59.71
2023-07-21T07:11:13.742Z,59.98
2023-07-21T07:14:00.493Z,58.90
2023-07-21T07:16:47.314Z,57.11
2023-07-21T07:19:34.117Z,57.99
2023-07-21T07:22:21.404Z,57.51
2023-07-21T07:25:08.794Z,56.71
2023-07-21T07:27:56.323Z,57.03
2023-07-21T07:30:43.428Z,56.11
2023-07-21T07:33:30.826Z,57.04
2023-07-21T07:36:18.129Z,56.40
2023-07-21T07:39:06.296Z,55.96
2023-07-21T07:41:55.893Z,55.31
2023-07-21T07:44:43.409Z,54.58
2023-07-21T07:47:30.632Z,55.23
2023-07-21T07:50:17.475Z,57.52
2023-07-21T07:53:04.463Z,57.89
2023-07-21T07:55:52.286Z,53.59
2023-07-21T07:58:39.913Z,52.76
2023-07-21T08:01:27.890Z,53.13
2023-07-21T08:04:15.631Z,53.12
2023-07-21T08:07:02.779Z,53.72
2023-07-21T08:09:50.174Z,53.32
2023-07-21T08:12:36.985Z,52.95
2023-07-21T08:15:24.749Z,50.16
2023-07-21T08:18:13.275Z,53.08
2023-07-21T08:21:00.142Z,50.57
2023-07-21T08:23:47.895Z,49.88
2023-07-21T08:26:34.922Z,53.10
2023-07-21T08:29:22.278Z,50.41
2023-07-21T08:32:09.376Z,50.17
2023-07-21T08:34:56.907Z,51.26
2023-07-21T08:37:43.969Z,49.95
2023-07-21T08:40:32.023Z,49.97
2023-07-21T08:43:19.111Z,49.12
2023-07-21T08:46:10.660Z,50.11
2023-07-21T08:48:58.894Z,49.18
2023-07-21T08:51:47.115Z,47.52
2023-07-21T08:54:34.406Z,46.32
2023-07-21T08:57:21.524Z,46.32
2023-07-21T09:00:11.778Z,44.81
2023-07-21T09:03:01.399Z,46.26
2023-07-21T09:05:51.592Z,44.50
2023-07-21T09:08:38.765Z,43.72
2023-07-21T09:11:26.813Z,42.39
2023-07-21T09:14:13.847Z,42.58
2023-07-21T09:17:00.905Z,44.12
2023-07-21T09:19:47.731Z,44.40
2023-07-21T09:22:34.830Z,45.84
2023-07-21T09:25:23.243Z,43.91
2023-07-21T09:28:10.349Z,44.10
2023-07-21T09:30:57.140Z,43.98
2023-07-21T09:33:47.813Z,44.59
2023-07-21T09:36:35.188Z,43.49
2023-07-21T09:39:22.039Z,43.46
2023-07-21T09:42:12.915Z,46.38
2023-07-21T09:44:59.992Z,46.09
2023-07-21T09:47:48.928Z,47.17
2023-07-21T09:50:36.768Z,47.17
2023-07-21T09:53:27.379Z,48.05
2023-07-21T09:56:16.516Z,48.93
2023-07-21T09:59:06.039Z,48.72
2023-07-21T10:01:53.676Z,49.39
2023-07-21T10:04:41.220Z,48.98
2023-07-21T10:07:29.184Z,50.34
2023-07-21T10:10:17.559Z,47.97
2023-07-21T10:13:06.601Z,48.27
2023-07-21T10:15:54.557Z,48.84
2023-07-21T10:19:02.074Z,49.05
2023-07-21T10:21:51.015Z,48.95
2023-07-21T10:24:46.353Z,49.27
2023-07-21T10:27:33.435Z,48.41
2023-07-21T10:30:22.327Z,47.59
2023-07-21T10:33:18.862Z,47.50
2023-07-21T10:36:15.177Z,46.40
2023-07-21T10:39:02.202Z,45.67
2023-07-21T10:42:01.446Z,46.77
2023-07-21T10:44:49.730Z,48.79
2023-07-21T10:47:37.064Z,49.07
2023-07-21T10:50:24.177Z,46.72
2023-07-21T10:53:13.910Z,47.19
2023-07-21T10:56:08.719Z,46.84
2023-07-21T10:58:56.807Z,47.06
2023-07-21T11:01:50.618Z,45.83
2023-07-21T11:04:40.567Z,45.24
2023-07-21T11:07:29.665Z,45.72
2023-07-21T11:10:16.975Z,44.66
2023-07-21T11:13:04.092Z,45.70
2023-07-21T11:16:01.958Z,44.59
2023-07-21T11:18:50.571Z,45.64
2023-07-21T11:21:40.004Z,46.75
2023-07-21T11:24:31.460Z,46.45
2023-07-21T11:27:18.684Z,47.18
2023-07-21T11:30:08.786Z,47.16
2023-07-21T11:33:12.072Z,48.91
2023-07-21T11:35:59.796Z,48.89
2023-07-21T11:39:06.177Z,52.86
2023-07-21T11:41:55.070Z,53.25
2023-07-21T11:44:42.819Z,56.12
2023-07-21T11:47:31.233Z,56.84
2023-07-21T11:50:19.880Z,56.02
2023-07-21T11:53:08.229Z,56.87
2023-07-21T11:55:56.091Z,56.51
2023-07-21T11:58:43.409Z,55.66
2023-07-21T12:01:33.214Z,59.02
2023-07-21T12:04:21.742Z,57.13
2023-07-21T12:07:09.586Z,57.06
2023-07-21T12:09:56.755Z,53.31
2023-07-21T12:12:43.534Z,49.23
2023-07-21T12:15:31.187Z,49.00
2023-07-21T12:18:18.552Z,44.97
2023-07-21T12:21:09.682Z,46.61
2023-07-21T12:23:57.275Z,46.47
2023-07-21T12:26:44.735Z,46.67
2023-07-21T12:29:44.828Z,47.63
2023-07-21T12:32:32.423Z,48.04
2023-07-21T12:35:19.979Z,46.99
2023-07-21T12:38:06.893Z,45.52
2023-07-21T12:40:53.788Z,46.74
2023-07-21T12:43:40.934Z,45.58
2023-07-21T12:46:28.899Z,45.13
2023-07-21T12:49:16.172Z,44.94
2023-07-21T12:52:03.289Z,43.58
2023-07-21T12:54:50.309Z,44.15
2023-07-21T12:57:37.722Z,43.53
2023-07-21T13:00:24.761Z,44.42
2023-07-21T13:03:11.786Z,45.96
2023-07-21T13:05:59.177Z,44.03
2023-07-21T13:08:46.325Z,44.35
2023-07-21T13:11:34.925Z,44.80
2023-07-21T13:14:21.885Z,44.11
2023-07-21T13:17:09.713Z,43.10
2023-07-21T13:19:58.189Z,43.04
2023-07-21T13:22:45.540Z,43.26
2023-07-21T13:25:32.656Z,43.39
2023-07-21T13:28:19.829Z,39.29
2023-07-21T13:31:07.072Z,37.25
2023-07-21T13:33:54.375Z,38.00
2023-07-21T13:36:45.407Z,39.41
2023-07-21T13:39:33.841Z,37.12
2023-07-21T13:42:21.509Z,38.03
2023-07-21T13:45:08.817Z,39.86
2023-07-21T13:47:55.958Z,39.62
2023-07-21T13:50:43.818Z,39.37
2023-07-21T13:53:31.107Z,38.72
2023-07-21T13:56:19.412Z,40.45
2023-07-21T13:59:06.874Z,40.07
2023-07-21T14:01:53.965Z,41.11
2023-07-21T14:04:44.562Z,41.02
2023-07-21T14:07:31.662Z,41.08
2023-07-21T14:10:18.493Z,41.71
2023-07-21T14:13:06.407Z,42.30
2023-07-21T14:15:53.518Z,42.54
2023-07-21T14:18:40.632Z,41.77
2023-07-21T14:21:30.751Z,42.35
2023-07-21T14:24:17.961Z,41.75
2023-07-21T14:27:05.013Z,41.52
2023-07-21T14:29:53.488Z,41.79
2023-07-21T14:32:40.545Z,41.37
2023-07-21T14:35:27.810Z,41.59
2023-07-21T14:38:16.545Z,41.87
2023-07-21T14:41:03.941Z,43.33
2023-07-21T14:43:51.336Z,42.87
2023-07-21T14:46:38.123Z,43.23
2023-07-21T14:49:25.371Z,43.25
2023-07-21T14:52:12.614Z,43.98
2023-07-21T14:55:00.180Z,44.88
2023-07-21T14:57:47.628Z,45.10
2023-07-21T15:00:34.705Z,45.33
2023-07-21T15:03:21.903Z,45.37
2023-07-21T15:06:08.832Z,45.08
2023-07-21T15:08:56.224Z,45.46
2023-07-21T15:11:43.218Z,45.76
2023-07-21T15:14:30.407Z,46.26
2023-07-21T15:17:18.522Z,46.55
2023-07-21T15:20:16.362Z,46.25
2023-07-21T15:23:03.410Z,45.82
2023-07-21T15:25:50.595Z,46.29
2023-07-21T15:28:37.344Z,45.96
2023-07-21T15:31:24.865Z,44.99
2023-07-21T15:34:13.466Z,44.56
2023-07-21T15:37:00.423Z,41.83
2023-07-21T15:39:47.711Z,43.33
2023-07-21T15:42:34.473Z,42.77
2023-07-21T15:45:21.660Z,43.30
2023-07-21T15:48:09.477Z,44.56
2023-07-21T15:50:56.641Z,43.78
2023-07-21T15:53:43.648Z,44.26
2023-07-21T15:56:31.998Z,44.08
2023-07-21T15:59:19.130Z,44.55
2023-07-21T16:02:07.019Z,45.76
2023-07-21T16:04:54.469Z,44.78
2023-07-21T16:07:42.178Z,42.49
2023-07-21T16:10:29.581Z,43.58
2023-07-21T16:13:18.333Z,44.58
2023-07-21T16:16:06.033Z,45.15
2023-07-21T16:18:52.803Z,44.74
2023-07-21T16:21:40.331Z,45.06
2023-07-21T16:24:28.920Z,45.25
2023-07-21T16:27:16.113Z,45.60
2023-07-21T16:30:02.999Z,44.13
2023-07-21T16:32:51.154Z,46.41
2023-07-21T16:35:38.055Z,47.24
2023-07-21T16:38:25.027Z,47.79
2023-07-21T16:41:13.251Z,47.49
2023-07-21T16:44:00.320Z,48.01
2023-07-21T16:46:47.782Z,48.20
2023-07-21T16:49:34.821Z,48.51
2023-07-21T16:52:23.238Z,48.50
2023-07-21T16:55:11.633Z,48.97
2023-07-21T16:57:59.008Z,48.24
2023-07-21T17:00:46.902Z,48.15
2023-07-21T17:03:34.348Z,48.06
2023-07-21T17:06:23.220Z,48.79
2023-07-21T17:09:10.599Z,48.35
2023-07-21T17:11:57.840Z,47.93
2023-07-21T17:14:46.540Z,47.31
2023-07-21T17:17:34.006Z,47.48
2023-07-21T17:20:20.857Z,47.56
2023-07-21T17:23:08.639Z,47.24
2023-07-21T17:25:55.654Z,46.07
2023-07-21T17:28:42.782Z,45.80
2023-07-21T17:31:29.925Z,46.43
2023-07-21T17:34:16.929Z,45.73
2023-07-21T17:37:04.098Z,45.91
2023-07-21T17:39:51.091Z,45.99
2023-07-21T17:42:40.426Z,46.44
2023-07-21T17:45:27.183Z,46.56
2023-07-21T17:48:15.709Z,45.93
2023-07-21T17:51:02.737Z,45.17
2023-07-21T17:53:54.899Z,45.43
2023-07-21T17:56:43.292Z,46.14
2023-07-21T17:59:31.981Z,45.61
2023-07-21T18:02:19.447Z,46.39
2023-07-21T18:05:06.829Z,46.08
2023-07-21T18:07:53.657Z,46.91
2023-07-21T18:10:40.660Z,46.63
2023-07-21T18:13:27.911Z,46.91
2023-07-21T18:16:16.944Z,47.03
2023-07-21T18:19:04.855Z,47.21
2023-07-21T18:21:51.963Z,48.05
2023-07-21T18:24:41.945Z,48.38
2023-07-21T18:27:29.285Z,48.68
2023-07-21T18:30:16.466Z,49.26
2023-07-21T18:33:05.163Z,48.63
2023-07-21T18:35:52.571Z,49.35
2023-07-21T18:38:43.562Z,48.58
2023-07-21T18:41:30.938Z,49.37
2023-07-21T18:44:19.738Z,49.80
2023-07-21T18:47:06.824Z,49.57
2023-07-21T18:49:54.074Z,50.09
2023-07-21T18:52:41.322Z,50.29
2023-07-21T18:55:28.765Z,50.52
2023-07-21T18:58:16.234Z,50.94
2023-07-21T19:01:03.317Z,51.45
2023-07-21T19:03:53.506Z,51.78
2023-07-21T19:06:40.352Z,52.48
2023-07-21T19:09:32.782Z,52.48
2023-07-21T19:12:22.527Z,52.42
2023-07-21T19:15:11.291Z,52.75
2023-07-21T19:17:58.358Z,52.74
2023-07-21T19:20:45.482Z,52.91
2023-07-21T19:23:40.682Z,53.02
2023-07-21T19:26:27.694Z,53.71
2023-07-21T19:29:14.823Z,52.92
2023-07-21T19:32:02.082Z,54.36
2023-07-21T19:34:49.374Z,55.16
2023-07-21T19:37:41.858Z,55.54
2023-07-21T19:40:29.837Z,55.92
2023-07-21T19:43:16.957Z,56.06
2023-07-21T19:46:04.855Z,56.53
2023-07-21T19:48:52.030Z,57.32
2023-07-21T19:51:41.806Z,57.89
2023-07-21T19:54:29.970Z,58.42
2023-07-21T19:57:16.950Z,58.69
2023-07-21T20:00:08.179Z,58.99
2023-07-21T20:02:55.236Z,58.55
2023-07-21T20:05:42.713Z,58.18
2023-07-21T20:08:29.742Z,58.18
2023-07-21T20:11:17.817Z,58.40
2023-07-21T20:14:05.199Z,58.83
2023-07-21T20:16:52.427Z,58.79
2023-07-21T20:19:41.526Z,58.08
2023-07-21T20:22:28.551Z,59.64
2023-07-21T20:25:15.255Z,59.65
2023-07-21T20:28:04.361Z,60.46
2023-07-21T20:30:52.026Z,60.34
2023-07-21T20:33:39.433Z,60.85
2023-07-21T20:36:26.982Z,60.19
2023-07-21T20:39:14.488Z,59.91
2023-07-21T20:42:02.122Z,59.92
2023-07-21T20:44:52.094Z,59.58
2023-07-21T20:47:38.933Z,60.86
2023-07-21T20:50:30.133Z,60.32
2023-07-21T20:53:19.467Z,59.11
2023-07-21T20:56:08.337Z,58.73
2023-07-21T20:58:55.370Z,57.00
2023-07-21T21:01:43.812Z,57.22
2023-07-21T21:04:31.592Z,58.04
2023-07-21T21:07:18.733Z,58.76
2023-07-21T21:10:07.782Z,59.17
2023-07-21T21:12:54.812Z,59.20
2023-07-21T21:15:46.194Z,59.23
2023-07-21T21:18:35.722Z,59.70
2023-07-21T21:21:22.722Z,59.05
2023-07-21T21:24:09.619Z,59.80
2023-07-21T21:26:56.839Z,61.52
2023-07-21T21:29:46.910Z,61.50
2023-07-21T21:32:33.823Z,59.52
2023-07-21T21:35:21.060Z,61.58
2023-07-21T21:38:08.548Z,58.75
2023-07-21T21:40:56.322Z,57.74
2023-07-21T21:43:43.516Z,57.94
2023-07-21T21:46:30.810Z,59.05
2023-07-21T21:49:17.922Z,59.71
2023-07-21T21:52:05.461Z,58.30
2023-07-21T21:54:52.801Z,58.88
2023-07-21T21:57:42.659Z,60.78
2023-07-21T22:00:31.136Z,58.87
2023-07-21T22:03:18.044Z,59.31
2023-07-21T22:06:05.070Z,57.66
2023-07-21T22:08:52.143Z,56.57
2023-07-21T22:11:39.693Z,56.74
2023-07-21T22:14:27.891Z,57.40
2023-07-21T22:17:15.334Z,58.04
2023-07-21T22:20:10.988Z,58.59
2023-07-21T22:22:59.924Z,57.03
2023-07-21T22:25:48.025Z,58.57
2023-07-21T22:28:35.169Z,60.54
2023-07-21T22:31:22.709Z,58.76
2023-07-21T22:34:10.932Z,58.59
2023-07-21T22:37:00.476Z,59.73
2023-07-21T22:39:47.451Z,59.73
2023-07-21T22:42:34.565Z,59.85
2023-07-21T22:45:21.693Z,59.05
2023-07-21T22:48:08.529Z,59.87
2023-07-21T22:50:55.750Z,58.10
2023-07-21T22:53:42.697Z,58.21
2023-07-21T22:56:30.633Z,60.21
2023-07-21T22:59:17.660Z,59.56
2023-07-21T23:02:04.665Z,60.79
2023-07-21T23:04:52.288Z,60.88
2023-07-21T23:07:39.667Z,58.62
2023-07-21T23:10:26.498Z,58.74
2023-07-21T23:13:14.042Z,58.89
2023-07-21T23:16:01.155Z,59.63
2023-07-21T23:18:47.953Z,58.49
2023-07-21T23:21:35.031Z,57.59
2023-07-21T23:24:22.664Z,58.29
2023-07-21T23:27:10.402Z,59.10
2023-07-21T23:29:58.940Z,58.38
2023-07-21T23:32:47.150Z,60.06
2023-07-21T23:35:34.170Z,59.17
2023-07-21T23:38:23.840Z,58.54
2023-07-21T23:41:11.114Z,58.98
2023-07-21T23:43:58.140Z,58.46
2023-07-21T23:46:44.901Z,58.24
2023-07-21T23:49:31.795Z,57.77
2023-07-21T23:52:18.996Z,57.70
2023-07-21T23:55:06.163Z,57.41
2023-07-21T23:57:52.986Z,57.69
